Time;durP1;ratioP1;P1;durP2;ratioP2;P2;SDS_P1;SDS_P2;PMS_P1;PMS_P2;Temp;Humidity;BMP_temperature;BMP_pressure;BME280_temperature;BME280_humidity;BME280_pressure;Samples;Min_cycle;Max_cycle;Signal;HPM_P1;HPM_P2
2023/11/22 00:04:58;;;;;;;;;;;;;;;;;;10416665;28;20113;-70
2023/11/22 00:09:59;;;;;;;;;;;;;;;;;;10417726;28;19923;-71
2023/11/22 00:14:59;;;;;;;;;;;;;;;;;;10417489;28;20412;-72
2023/11/22 00:20:02;;;;;;;;;;;;;;;;;;10417035;28;19901;-72
2023/11/22 00:25:02;;;;;;;;;;;;;;;;;;10417433;28;20114;-72
2023/11/22 00:30:02;;;;;;;;;;;;;;;;;;10416931;28;19905;-71
2023/11/22 00:35:02;;;;;;;;;;;;;;;;;;10432183;28;20162;-71
2023/11/22 00:40:10;;;;;;;;;;;;;;;;;;10417330;28;19901;-71
2023/11/22 00:45:10;;;;;;;;;;;;;;;;;;10416792;28;19908;-72
2023/11/22 00:50:10;;;;;;;;;;;;;;;;;;10421315;28;20183;-71
2023/11/22 00:55:11;;;;;;;;;;;;;;;;;;10456974;28;19920;-71
2023/11/22 01:00:12;;;;;;;;;;;;;;;;;;10424555;28;19900;-71
2023/11/22 01:05:14;;;;;;;;;;;;;;;;;;10425565;28;19909;-72
2023/11/22 01:10:15;;;;;;;;;;;;;;;;;;10424369;28;20121;-72
2023/11/22 01:15:15;;;;;;;;;;;;;;;;;;10424597;28;19948;-72
2023/11/22 01:20:15;;;;;;;;;;;;;;;;;;10424330;28;20077;-72
2023/11/22 01:25:15;;;;;;;;;;;;;;;;;;10423979;28;19932;-70
2023/11/22 01:30:18;;;;;;;;;;;;;;;;;;10423765;28;19912;-72
2023/11/22 01:35:18;;;;;;;;;;;;;;;;;;10423483;28;20103;-71
2023/11/22 01:40:19;;;;;;;;;;;;;;;;;;10423441;28;19916;-71
2023/11/22 01:45:19;;;;;;;;;;;;;;;;;;10422960;28;20122;-71
2023/11/22 01:50:19;;;;;;;;;;;;;;;;;;10422989;28;19933;-72
2023/11/22 01:55:19;;;;;;;;;;;;;;;;;;10422835;28;19904;-72
2023/11/22 02:00:19;;;;;;;;;;;;;;;;;;10423404;28;19912;-70
2023/11/22 02:05:20;;;;;;;;;;;;;;;;;;10405559;28;19901;-71
2023/11/22 02:10:20;;;;;;;;;;;;;;;;;;10422579;28;20129;-72
2023/11/22 02:15:20;;;;;;;;;;;;;;;;;;10422271;28;20310;-72
2023/11/22 02:20:20;;;;;;;;;;;;;;;;;;10422104;28;19900;-72
2023/11/22 02:25:21;;;;;;;;;;;;;;;;;;10421814;28;19924;-72
2023/11/22 02:30:21;;;;;;;;;;;;;;;;;;10421449;28;19951;-71
2023/11/22 02:35:22;;;;;;;;;;;;;;;;;;10409221;28;19959;-72
2023/11/22 02:40:22;;;;;;;;;;;;;;;;;;10413628;28;20093;-71
2023/11/22 02:45:22;;;;;;;;;;;;;;;;;;10408415;28;20130;-72
2023/11/22 02:50:23;;;;;;;;;;;;;;;;;;10392048;28;19905;-71
2023/11/22 02:55:24;;;;;;;;;;;;;;;;;;10453415;28;19905;-71
2023/11/22 03:00:25;;;;;;;;;;;;;;;;;;10420989;28;19901;-71
2023/11/22 03:05:25;;;;;;;;;;;;;;;;;;10420702;28;19968;-72
2023/11/22 03:10:26;;;;;;;;;;;;;;;;;;10419729;28;19932;-70
2023/11/22 03:15:26;;;;;;;;;;;;;;;;;;10419744;28;19907;-72
2023/11/22 03:20:26;;;;;;;;;;;;;;;;;;10419805;28;19901;-71
2023/11/22 03:25:26;;;;;;;;;;;;;;;;;;10419524;28;20145;-71
2023/11/22 03:30:27;;;;;;;;;;;;;;;;;;10419035;28;20195;-71
2023/11/22 03:35:27;;;;;;;;;;;;;;;;;;10415250;28;19916;-71
2023/11/22 03:40:27;;;;;;;;;;;;;;;;;;10408705;28;20355;-71
2023/11/22 03:45:27;;;;;;;;;;;;;;;;;;10418681;28;19908;-70
2023/11/22 03:50:27;;;;;;;;;;;;;;;;;;10417481;28;19905;-72
2023/11/22 03:55:27;;;;;;;;;;;;;;;;;;10418594;28;20020;-71
2023/11/22 04:00:28;;;;;;;;;;;;;;;;;;10417790;28;19963;-71
2023/11/22 04:05:28;;;;;;;;;;;;;;;;;;10449388;28;19908;-71
2023/11/22 04:10:28;;;;;;;;;;;;;;;;;;10418220;28;19916;-72
2023/11/22 04:15:29;;;;;;;;;;;;;;;;;;10417864;28;19983;-71
2023/11/22 04:20:29;;;;;;;;;;;;;;;;;;10418193;28;19901;-70
2023/11/22 04:25:29;;;;;;;;;;;;;;;;;;10417739;28;19908;-71
2023/11/22 04:30:30;;;;;;;;;;;;;;;;;;10417441;28;19909;-71
2023/11/22 04:35:33;;;;;;;;;;;;;;;;;;10417236;28;19971;-71
2023/11/22 04:40:34;;;;;;;;;;;;;;;;;;10416892;28;19909;-71
2023/11/22 04:45:34;;;;;;;;;;;;;;;;;;10417013;28;19913;-71
2023/11/22 04:50:34;;;;;;;;;;;;;;;;;;10417687;28;19960;-71
2023/11/22 04:55:34;;;;;;;;;;;;;;;;;;10425704;28;20238;-70
2023/11/22 05:00:35;;;;;;;;;;;;;;;;;;10416510;28;19947;-72
2023/11/22 05:05:35;;;;;;;;;;;;;;;;;;10416323;28;20221;-71
2023/11/22 05:10:35;;;;;;;;;;;;;;;;;;10416316;28;19907;-72
2023/11/22 05:15:35;;;;;;;;;;;;;;;;;;10415087;28;19913;-72
2023/11/22 05:20:35;;;;;;;;;;;;;;;;;;10412977;28;19901;-72
2023/11/22 05:25:35;;;;;;;;;;;;;;;;;;10412834;28;20186;-72
2023/11/22 05:30:35;;;;;;;;;;;;;;;;;;10412656;28;20103;-72
2023/11/22 05:35:36;;;;;;;;;;;;;;;;;;10418794;28;20256;-72
2023/11/22 05:40:36;;;;;;;;;;;;;;;;;;10422864;28;19905;-72
2023/11/22 05:45:36;;;;;;;;;;;;;;;;;;10423472;28;19924;-70
2023/11/22 05:50:36;;;;;;;;;;;;;;;;;;10421238;28;20312;-71
2023/11/22 05:55:37;;;;;;;;;;;;;;;;;;10421419;28;19905;-69
2023/11/22 06:00:38;;;;;;;;;;;;;;;;;;10421613;28;20201;-69
2023/11/22 06:05:38;;;;;;;;;;;;;;;;;;10421893;28;19923;-70
2023/11/22 06:10:41;;;;;;;;;;;;;;;;;;10420846;28;19923;-70
2023/11/22 06:15:41;;;;;;;;;;;;;;;;;;10452452;28;19941;-71
2023/11/22 06:20:41;;;;;;;;;;;;;;;;;;10419011;28;19947;-71
2023/11/22 06:25:42;;;;;;;;;;;;;;;;;;10451224;28;20094;-70
2023/11/22 06:30:42;;;;;;;;;;;;;;;;;;10418078;28;19913;-70
2023/11/22 06:35:43;;;;;;;;;;;;;;;;;;10418479;28;19917;-71
2023/11/22 06:40:43;;;;;;;;;;;;;;;;;;10433182;28;19909;-70
2023/11/22 06:45:44;;;;;;;;;;;;;;;;;;10418576;28;20106;-70
2023/11/22 06:50:45;;;;;;;;;;;;;;;;;;10420570;28;19901;-70
2023/11/22 06:55:45;;;;;;;;;;;;;;;;;;10419948;28;20369;-71
2023/11/22 07:00:45;;;;;;;;;;;;;;;;;;10419305;28;19959;-71
2023/11/22 07:05:45;;;;;;;;;;;;;;;;;;10419835;28;20118;-71
2023/11/22 07:10:45;;;;;;;;;;;;;;;;;;10434451;28;20185;-70
2023/11/22 07:15:45;;;;;;;;;;;;;;;;;;10418804;28;19905;-70
2023/11/22 07:20:48;;;;;;;;;;;;;;;;;;10419480;28;19901;-69
2023/11/22 07:25:48;;;;;;;;;;;;;;;;;;10424190;28;19901;-70
2023/11/22 07:30:48;;;;;;;;;;;;;;;;;;10431727;28;19912;-71
2023/11/22 07:35:48;;;;;;;;;;;;;;;;;;10418540;28;19984;-70
2023/11/22 07:40:48;;;;;;;;;;;;;;;;;;10419271;28;19909;-70
2023/11/22 07:45:50;;;;;;;;;;;;;;;;;;10430208;28;20031;-70
2023/11/22 07:50:52;;;;;;;;;;;;;;;;;;10433359;28;19905;-70
2023/11/22 07:55:53;;;;;;;;;;;;;;;;;;10417956;28;19950;-71
2023/11/22 08:00:55;;;;;;;;;;;;;;;;;;10417623;28;19913;-71
2023/11/22 08:05:55;;;;;;;;;;;;;;;;;;10421230;28;19908;-70
2023/11/22 08:10:56;;;;;;;;;;;;;;;;;;10427019;28;20191;-70
2023/11/22 08:15:57;;;;;;;;;;;;;;;;;;10414007;28;20195;-70
2023/11/22 08:20:58;;;;;;;;;;;;;;;;;;10413610;28;19911;-70
2023/11/22 08:25:58;;;;;;;;;;;;;;;;;;10420343;28;19917;-70
2023/11/22 08:30:58;;;;;;;;;;;;;;;;;;10440211;28;20146;-70
2023/11/22 08:36:00;;;;;;;;;;;;;;;;;;10440406;28;19995;-70
2023/11/22 08:41:00;;;;;;;;;;;;;;;;;;10409402;28;19909;-70
2023/11/22 08:46:01;;;;;;;;;;;;;;;;;;10411699;28;20190;-71
2023/11/22 08:51:01;;;;;;;;;;;;;;;;;;10428410;28;19904;-72
2023/11/22 08:56:05;;;;;;;;;;;;;;;;;;10426953;28;19913;-70
2023/11/22 09:01:05;;;;;;;;;;;;;;;;;;10410494;28;20019;-70
2023/11/22 09:06:07;;;;;;;;;;;;;;;;;;10410966;28;19908;-74
2023/11/22 09:11:07;;;;;;;;;;;;;;;;;;10413680;28;20203;-76
2023/11/22 09:16:08;;;;;;;;;;;;;;;;;;10419076;28;19985;-74
2023/11/22 09:21:09;;;;;;;;;;;;;;;;;;10422565;28;19905;-77
2023/11/22 09:26:09;;;;;;;;;;;;;;;;;;10420168;28;19913;-76
2023/11/22 09:31:13;;;;;;;;;;;;;;;;;;10434673;28;19968;-75
2023/11/22 09:36:13;;;;;;;;;;;;;;;;;;10451077;28;19932;-76
2023/11/22 09:41:14;;;;;;;;;;;;;;;;;;10414654;28;19947;-76
2023/11/22 09:46:15;;;;;;;;;;;;;;;;;;10414976;28;20175;-77
2023/11/22 09:51:17;;;;;;;;;;;;;;;;;;10414474;28;19905;-74
2023/11/22 09:56:18;;;;;;;;;;;;;;;;;;10415401;28;19955;-73
2023/11/22 10:01:19;;;;;;;;;;;;;;;;;;10410725;28;20110;-76
2023/11/22 10:06:20;;;;;;;;;;;;;;;;;;10444915;28;19905;-77
2023/11/22 10:11:21;;;;;;;;;;;;;;;;;;10411290;28;19982;-77
2023/11/22 10:16:22;;;;;;;;;;;;;;;;;;10409219;28;19970;-77
2023/11/22 10:21:23;;;;;;;;;;;;;;;;;;10413096;28;20188;-74
2023/11/22 10:26:24;;;;;;;;;;;;;;;;;;10412685;28;19913;-77
2023/11/22 10:31:24;;;;;;;;;;;;;;;;;;10414460;28;20198;-76
2023/11/22 10:36:24;;;;;;;;;;;;;;;;;;10411792;28;20064;-75
2023/11/22 10:41:24;;;;;;;;;;;;;;;;;;10445431;28;19920;-80
2023/11/22 10:46:24;;;;;;;;;;;;;;;;;;10412988;28;19948;-77
2023/11/22 10:51:24;;;;;;;;;;;;;;;;;;10416679;28;20240;-75
2023/11/22 10:56:25;;;;;;;;;;;;;;;;;;10416805;28;19905;-74
2023/11/22 11:01:31;;;;;;;;;;;;;;;;;;10414507;28;19927;-73
2023/11/22 11:06:33;;;;;;;;;;;;;;;;;;10414136;28;19940;-75
2023/11/22 11:11:33;;;;;;;;;;;;;;;;;;10414663;28;19905;-75
2023/11/22 11:16:34;;;;;;;;;;;;;;;;;;10446708;28;20241;-77
2023/11/22 11:21:34;;;;;;;;;;;;;;;;;;10430831;28;19920;-75
2023/11/22 11:26:34;;;;;;;;;;;;;;;;;;10415385;28;19909;-75
2023/11/22 11:31:35;;;;;;;;;;;;;;;;;;10413915;28;19952;-68
2023/11/22 11:36:36;;;;;;;;;;;;;;;;;;10413295;28;19935;-72
2023/11/22 11:41:39;;;;;;;;;;;;;;;;;;10414255;28;20317;-71
2023/11/22 11:46:39;;;;;;;;;;;;;;;;;;10411558;28;19947;-76
2023/11/22 11:51:42;;;;;;;;;;;;;;;;;;10412122;28;19943;-79
2023/11/22 11:56:44;;;;;;;;;;;;;;;;;;10413169;28;19909;-80
2023/11/22 12:01:44;;;;;;;;;;;;;;;;;;10412677;28;19936;-80
2023/11/22 12:06:44;;;;;;;;;;;;;;;;;;10413793;28;19912;-75
2023/11/22 12:11:46;;;;;;;;;;;;;;;;;;10413628;28;19901;-76
2023/11/22 12:16:50;;;;;;;;;;;;;;;;;;10411987;28;20076;-74
2023/11/22 12:21:50;;;;;;;;;;;;;;;;;;10413761;28;19908;-77
2023/11/22 12:26:50;;;;;;;;;;;;;;;;;;10410787;28;20072;-75
2023/11/22 12:31:50;;;;;;;;;;;;;;;;;;10410516;28;19913;-76
2023/11/22 12:36:50;;;;;;;;;;;;;;;;;;10415750;28;19908;-72
2023/11/22 12:41:52;;;;;;;;;;;;;;;;;;10412799;28;19901;-78
2023/11/22 12:46:59;;;;;;;;;;;;;;;;;;10416670;28;20103;-75
2023/11/22 12:51:59;;;;;;;;;;;;;;;;;;10417972;28;19916;-74
2023/11/22 12:56:59;;;;;;;;;;;;;;;;;;10418914;28;19956;-73
2023/11/22 13:02:00;;;;;;;;;;;;;;;;;;10421540;28;19909;-74
2023/11/22 13:07:00;;;;;;;;;;;;;;;;;;10420775;28;19978;-74
2023/11/22 13:12:00;;;;;;;;;;;;;;;;;;10420608;28;19901;-76
2023/11/22 13:17:00;;;;;;;;;;;;;;;;;;10421369;28;19908;-75
2023/11/22 13:22:00;;;;;;;;;;;;;;;;;;10436036;28;19908;-75
2023/11/22 13:27:01;;;;;;;;;;;;;;;;;;10423724;28;19960;-73
2023/11/22 13:32:01;;;;;;;;;;;;;;;;;;10420281;28;19913;-77
2023/11/22 13:37:01;;;;;;;;;;;;;;;;;;10419441;28;20237;-76
2023/11/22 13:42:01;;;;;;;;;;;;;;;;;;10419067;28;19948;-76
2023/11/22 13:47:04;;;;;;;;;;;;;;;;;;10451698;28;20322;-75
2023/11/22 13:52:04;;;;;;;;;;;;;;;;;;10416347;28;19907;-75
2023/11/22 13:57:04;;;;;;;;;;;;;;;;;;10446977;28;19920;-76
2023/11/22 14:02:07;;;;;;;;;;;;;;;;;;10416884;28;19912;-75
2023/11/22 14:07:07;;;;;;;;;;;;;;;;;;10417759;28;19901;-74
2023/11/22 14:12:08;;;;;;;;;;;;;;;;;;10417726;28;20083;-74
2023/11/22 14:17:08;;;;;;;;;;;;;;;;;;10450804;28;20246;-77
2023/11/22 14:22:08;;;;;;;;;;;;;;;;;;10418575;28;19981;-77
2023/11/22 14:27:08;;;;;;;;;;;;;;;;;;10417876;28;19901;-75
2023/11/22 14:32:08;;;;;;;;;;;;;;;;;;10416695;28;20091;-77
2023/11/22 14:37:08;;;;;;;;;;;;;;;;;;10417254;28;19913;-73
2023/11/22 14:42:08;;;;;;;;;;;;;;;;;;10417380;28;19935;-76
2023/11/22 14:47:19;;;;;;;;;;;;;;;;;;10418567;28;20219;-76
2023/11/22 14:52:20;;;;;;;;;;;;;;;;;;10416237;28;19901;-74
2023/11/22 14:57:21;;;;;;;;;;;;;;;;;;10413227;28;20134;-75
2023/11/22 15:02:21;;;;;;;;;;;;;;;;;;10416315;28;19905;-74
2023/11/22 15:07:22;;;;;;;;;;;;;;;;;;10446315;28;20145;-74
2023/11/22 15:12:22;;;;;;;;;;;;;;;;;;10414418;28;20226;-75
2023/11/22 15:17:23;;;;;;;;;;;;;;;;;;10446914;28;19905;-73
2023/11/22 15:22:23;;;;;;;;;;;;;;;;;;10414915;28;19908;-75
2023/11/22 15:27:23;;;;;;;;;;;;;;;;;;10414860;28;19920;-75
2023/11/22 15:32:23;;;;;;;;;;;;;;;;;;10414927;28;19935;-77
2023/11/22 15:37:23;;;;;;;;;;;;;;;;;;10414079;28;20111;-75
2023/11/22 15:42:24;;;;;;;;;;;;;;;;;;10413989;28;20103;-78
2023/11/22 15:47:24;;;;;;;;;;;;;;;;;;10416645;28;19912;-76
2023/11/22 15:52:26;;;;;;;;;;;;;;;;;;10446990;28;19905;-76
2023/11/22 15:57:26;;;;;;;;;;;;;;;;;;10419173;28;20099;-77
2023/11/22 16:02:27;;;;;;;;;;;;;;;;;;10418247;28;19971;-68
2023/11/22 16:07:27;;;;;;;;;;;;;;;;;;10413827;28;20060;-68
2023/11/22 16:12:27;;;;;;;;;;;;;;;;;;10414913;28;19968;-69
2023/11/22 16:17:28;;;;;;;;;;;;;;;;;;10416778;28;20224;-69
2023/11/22 16:22:29;;;;;;;;;;;;;;;;;;10448730;28;20143;-72
2023/11/22 16:27:29;;;;;;;;;;;;;;;;;;10415477;28;20206;-70
2023/11/22 16:32:29;;;;;;;;;;;;;;;;;;10418975;28;19924;-70
2023/11/22 16:37:29;;;;;;;;;;;;;;;;;;10416033;28;19948;-70
2023/11/22 16:42:30;;;;;;;;;;;;;;;;;;10414623;28;20094;-71
2023/11/22 16:47:32;;;;;;;;;;;;;;;;;;10418343;28;20187;-73
2023/11/22 16:52:32;;;;;;;;;;;;;;;;;;10443087;28;20153;-71
2023/11/22 16:57:33;;;;;;;;;;;;;;;;;;10418865;28;19912;-79
2023/11/22 17:02:34;;;;;;;;;;;;;;;;;;10416950;28;19940;-78
2023/11/22 17:07:34;;;;;;;;;;;;;;;;;;10416545;28;20098;-78
2023/11/22 17:12:34;;;;;;;;;;;;;;;;;;10445808;28;19912;-79
2023/11/22 17:17:35;;;;;;;;;;;;;;;;;;10417446;28;19935;-76
2023/11/22 17:22:35;;;;;;;;;;;;;;;;;;10414924;28;19912;-75
2023/11/22 17:27:35;;;;;;;;;;;;;;;;;;10412717;28;19905;-73
2023/11/22 17:32:36;;;;;;;;;;;;;;;;;;10417115;28;20088;-76
2023/11/22 17:37:37;;;;;;;;;;;;;;;;;;10424839;28;19921;-78
2023/11/22 17:42:37;;;;;;;;;;;;;;;;;;10425447;28;19905;-76
2023/11/22 17:47:37;;;;;;;;;;;;;;;;;;10421286;28;19912;-76
2023/11/22 17:52:37;;;;;;;;;;;;;;;;;;10419362;28;19913;-73
2023/11/22 17:57:37;;;;;;;;;;;;;;;;;;10425227;28;20195;-73
2023/11/22 18:02:38;;;;;;;;;;;;;;;;;;10422054;28;19905;-72
2023/11/22 18:07:38;;;;;;;;;;;;;;;;;;10421999;28;19952;-72
2023/11/22 18:12:38;;;;;;;;;;;;;;;;;;10453223;28;19905;-72
2023/11/22 18:17:38;;;;;;;;;;;;;;;;;;10438004;28;19917;-73
2023/11/22 18:22:39;;;;;;;;;;;;;;;;;;10420894;28;20237;-72
2023/11/22 18:27:39;;;;;;;;;;;;;;;;;;10454362;28;20000;-75
2023/11/22 18:32:39;;;;;;;;;;;;;;;;;;10453062;28;19920;-77
2023/11/22 18:37:39;;;;;;;;;;;;;;;;;;10454012;28;20134;-75
2023/11/22 18:42:40;;;;;;;;;;;;;;;;;;10421401;28;20245;-75
2023/11/22 18:47:41;;;;;;;;;;;;;;;;;;10420708;28;19913;-75
2023/11/22 18:52:41;;;;;;;;;;;;;;;;;;10418225;28;19905;-73
2023/11/22 18:57:41;;;;;;;;;;;;;;;;;;10450919;28;19909;-73
2023/11/22 19:02:41;;;;;;;;;;;;;;;;;;10427659;28;19905;-76
2023/11/22 19:07:41;;;;;;;;;;;;;;;;;;10453335;28;20199;-76
2023/11/22 19:12:42;;;;;;;;;;;;;;;;;;10451223;28;20146;-81
2023/11/22 19:17:42;;;;;;;;;;;;;;;;;;10419276;28;19980;-73
2023/11/22 19:22:42;;;;;;;;;;;;;;;;;;10417916;28;19984;-72
2023/11/22 19:27:42;;;;;;;;;;;;;;;;;;10444985;28;19928;-77
2023/11/22 19:32:42;;;;;;;;;;;;;;;;;;10428171;28;19921;-73
2023/11/22 19:37:42;;;;;;;;;;;;;;;;;;10407280;28;20171;-74
2023/11/22 19:42:44;;;;;;;;;;;;;;;;;;10411371;28;19909;-69
2023/11/22 19:47:45;;;;;;;;;;;;;;;;;;10411531;28;20424;-75
2023/11/22 19:52:45;;;;;;;;;;;;;;;;;;10409889;28;19908;-74
2023/11/22 19:57:46;;;;;;;;;;;;;;;;;;10410338;28;19912;-70
2023/11/22 20:02:46;;;;;;;;;;;;;;;;;;10413154;28;19920;-69
2023/11/22 20:07:49;;;;;;;;;;;;;;;;;;10412260;28;19964;-74
2023/11/22 20:12:49;;;;;;;;;;;;;;;;;;10444479;28;20370;-74
2023/11/22 20:17:49;;;;;;;;;;;;;;;;;;10413407;28;19950;-75
2023/11/22 20:22:49;;;;;;;;;;;;;;;;;;10447825;28;19905;-76
2023/11/22 20:27:50;;;;;;;;;;;;;;;;;;10408128;28;19909;-76
2023/11/22 20:32:50;;;;;;;;;;;;;;;;;;10432659;28;19920;-74
2023/11/22 20:37:50;;;;;;;;;;;;;;;;;;10416367;28;20229;-75
2023/11/22 20:42:50;;;;;;;;;;;;;;;;;;10418947;28;20211;-76
2023/11/22 20:47:50;;;;;;;;;;;;;;;;;;10431869;28;19939;-78
2023/11/22 20:52:50;;;;;;;;;;;;;;;;;;10431555;28;19901;-76
2023/11/22 20:57:50;;;;;;;;;;;;;;;;;;10431216;28;19912;-76
2023/11/22 21:02:51;;;;;;;;;;;;;;;;;;10415718;28;20190;-75
2023/11/22 21:07:51;;;;;;;;;;;;;;;;;;10411709;28;20263;-77
2023/11/22 21:12:51;;;;;;;;;;;;;;;;;;10406896;28;20225;-76
2023/11/22 21:17:51;;;;;;;;;;;;;;;;;;10423356;28;20249;-74
2023/11/22 21:22:52;;;;;;;;;;;;;;;;;;10441340;28;20178;-76
2023/11/22 21:27:52;;;;;;;;;;;;;;;;;;10438691;28;19912;-74
2023/11/22 21:32:52;;;;;;;;;;;;;;;;;;10432306;28;19913;-75
2023/11/22 21:37:52;;;;;;;;;;;;;;;;;;10437784;28;19909;-74
2023/11/22 21:42:52;;;;;;;;;;;;;;;;;;10424591;28;19909;-76
2023/11/22 21:47:52;;;;;;;;;;;;;;;;;;10422667;28;19901;-76
2023/11/22 21:52:53;;;;;;;;;;;;;;;;;;10422342;28;19902;-77
2023/11/22 21:57:53;;;;;;;;;;;;;;;;;;10422108;28;19944;-75
2023/11/22 22:02:54;;;;;;;;;;;;;;;;;;10430252;28;19946;-75
2023/11/22 22:07:55;;;;;;;;;;;;;;;;;;10426295;28;19901;-76
2023/11/22 22:12:55;;;;;;;;;;;;;;;;;;10450510;28;20120;-76
2023/11/22 22:17:55;;;;;;;;;;;;;;;;;;10421831;28;19912;-75
2023/11/22 22:22:56;;;;;;;;;;;;;;;;;;10421981;28;19980;-77
2023/11/22 22:27:56;;;;;;;;;;;;;;;;;;10408441;28;19901;-77
2023/11/22 22:32:56;;;;;;;;;;;;;;;;;;10408311;28;19980;-76
2023/11/22 22:37:56;;;;;;;;;;;;;;;;;;10431316;28;19908;-75
2023/11/22 22:42:56;;;;;;;;;;;;;;;;;;10409839;28;20079;-76
2023/11/22 22:47:56;;;;;;;;;;;;;;;;;;10420801;28;19901;-74
2023/11/22 22:52:56;;;;;;;;;;;;;;;;;;10425344;28;19905;-77
2023/11/22 22:57:57;;;;;;;;;;;;;;;;;;10424679;28;19959;-75
2023/11/22 23:02:57;;;;;;;;;;;;;;;;;;10419905;28;20015;-76
2023/11/22 23:07:57;;;;;;;;;;;;;;;;;;10414031;28;19910;-76
2023/11/22 23:12:58;;;;;;;;;;;;;;;;;;10412419;28;19915;-78
2023/11/22 23:17:58;;;;;;;;;;;;;;;;;;10419015;28;20238;-76
2023/11/22 23:22:58;;;;;;;;;;;;;;;;;;10418832;28;19984;-76
2023/11/22 23:27:59;;;;;;;;;;;;;;;;;;10418078;28;19901;-75
2023/11/22 23:32:59;;;;;;;;;;;;;;;;;;10418232;28;19920;-77
2023/11/22 23:37:59;;;;;;;;;;;;;;;;;;10417990;28;19970;-77
2023/11/22 23:42:59;;;;;;;;;;;;;;;;;;10418715;28;19920;-77
2023/11/22 23:48:00;;;;;;;;;;;;;;;;;;10418183;28;20211;-77
2023/11/22 23:53:00;;;;;;;;;;;;;;;;;;10420396;28;19980;-77
2023/11/22 23:58:00;;;;;;;;;;;;;;;;;;10419203;28;19919;-75
